createdAt,value
2019-03-27T00:00:27.354Z,10.48
2019-03-27T00:02:55.649Z,5.30
2019-03-27T00:05:24.101Z,9.88
2019-03-27T00:07:52.521Z,4.43
2019-03-27T00:10:21.203Z,4.53
2019-03-27T00:12:49.497Z,7.30
2019-03-27T00:15:18.631Z,17.35
2019-03-27T00:17:46.964Z,6.43
2019-03-27T00:20:16.502Z,8.33
2019-03-27T00:22:44.865Z,9.20
2019-03-27T00:25:13.191Z,4.43
2019-03-27T00:27:41.509Z,6.17
2019-03-27T00:30:10.781Z,10.50
2019-03-27T00:32:39.151Z,18.27
2019-03-27T00:35:09.320Z,13.07
2019-03-27T00:37:37.645Z,10.03
2019-03-27T00:40:07.277Z,7.90
2019-03-27T00:42:35.645Z,5.25
2019-03-27T00:45:08.057Z,6.20
2019-03-27T00:47:36.352Z,9.57
2019-03-27T00:50:07.567Z,8.47
2019-03-27T00:52:35.937Z,9.30
2019-03-27T00:55:05.619Z,6.37
2019-03-27T00:57:34.008Z,11.30
2019-03-27T01:00:02.418Z,10.47
2019-03-27T01:02:31.046Z,8.17
2019-03-27T01:04:59.360Z,8.50
2019-03-27T01:07:27.722Z,10.95
2019-03-27T01:09:56.100Z,14.83
2019-03-27T01:12:25.233Z,9.70
2019-03-27T01:14:53.531Z,6.20
2019-03-27T01:17:21.982Z,13.50
2019-03-27T01:19:50.307Z,12.87
2019-03-27T01:22:18.787Z,17.13
2019-03-27T01:24:47.151Z,15.83
2019-03-27T01:27:15.495Z,11.43
2019-03-27T01:29:43.800Z,10.53
2019-03-27T01:32:12.179Z,11.17
2019-03-27T01:34:40.487Z,13.40
2019-03-27T01:37:08.802Z,8.13
2019-03-27T01:39:37.485Z,10.10
2019-03-27T01:42:05.967Z,6.40
2019-03-27T01:44:34.276Z,9.93
2019-03-27T01:47:02.672Z,13.27
2019-03-27T01:49:30.983Z,9.40
2019-03-27T01:51:59.364Z,16.20
2019-03-27T01:54:27.892Z,17.10
2019-03-27T01:56:56.261Z,15.33
2019-03-27T01:59:24.625Z,20.70
2019-03-27T02:01:53.040Z,10.33
2019-03-27T02:04:21.351Z,10.97
2019-03-27T02:06:49.737Z,12.20
2019-03-27T02:09:18.040Z,16.23
2019-03-27T02:11:46.468Z,14.60
2019-03-27T02:14:14.769Z,21.20
2019-03-27T02:16:43.105Z,20.73
2019-03-27T02:19:11.486Z,21.20
2019-03-27T02:21:39.819Z,22.33
2019-03-27T02:24:08.116Z,20.07
2019-03-27T02:26:36.555Z,12.40
2019-03-27T02:29:04.857Z,13.20
2019-03-27T02:31:33.187Z,19.57
2019-03-27T02:34:02.007Z,18.27
2019-03-27T02:36:30.360Z,20.87
2019-03-27T02:38:58.768Z,21.90
2019-03-27T02:41:27.147Z,19.90
2019-03-27T02:43:55.839Z,36.07
2019-03-27T02:46:25.523Z,20.07
2019-03-27T02:48:54.414Z,21.10
2019-03-27T02:51:22.766Z,21.30
2019-03-27T02:53:51.091Z,32.70
2019-03-27T02:56:19.392Z,31.00
2019-03-27T02:58:47.802Z,22.90
2019-03-27T03:01:16.137Z,29.33
2019-03-27T03:03:44.531Z,29.92
2019-03-27T03:06:13.001Z,24.00
2019-03-27T03:08:41.309Z,30.70
2019-03-27T03:11:09.709Z,23.33
2019-03-27T03:13:38.869Z,32.30
2019-03-27T03:16:07.262Z,26.20
2019-03-27T03:18:35.580Z,25.60
2019-03-27T03:21:04.148Z,30.60
2019-03-27T03:23:32.602Z,36.58
2019-03-27T03:26:01.073Z,29.05
2019-03-27T03:28:29.768Z,42.70
2019-03-27T03:30:58.143Z,37.70
2019-03-27T03:33:26.547Z,30.93
2019-03-27T03:35:54.928Z,37.05
2019-03-27T03:38:23.256Z,33.50
2019-03-27T03:40:51.575Z,28.30
2019-03-27T03:43:20.064Z,34.17
2019-03-27T03:45:48.750Z,33.47
2019-03-27T03:48:17.102Z,36.70
2019-03-27T03:50:45.965Z,31.70
2019-03-27T03:53:14.821Z,40.60
2019-03-27T03:55:43.899Z,43.08
2019-03-27T03:58:17.174Z,38.97
2019-03-27T04:00:45.576Z,44.47
2019-03-27T04:03:14.415Z,37.00
2019-03-27T04:05:43.055Z,42.20
2019-03-27T04:08:11.419Z,39.97
2019-03-27T04:10:39.893Z,42.23
2019-03-27T04:13:08.272Z,54.27
2019-03-27T04:15:36.682Z,36.70
2019-03-27T04:18:05.068Z,46.33
2019-03-27T04:20:33.379Z,33.27
2019-03-27T04:23:01.686Z,34.93
2019-03-27T04:25:30.092Z,37.40
2019-03-27T04:27:58.766Z,39.63
2019-03-27T04:30:27.142Z,35.77
2019-03-27T04:32:55.459Z,34.40
2019-03-27T04:35:24.060Z,32.23
2019-03-27T04:37:52.502Z,38.75
2019-03-27T04:40:20.870Z,34.20
2019-03-27T04:42:49.187Z,33.67
2019-03-27T04:45:17.792Z,38.90
2019-03-27T04:47:46.586Z,43.70
2019-03-27T04:50:15.052Z,34.73
2019-03-27T04:52:43.469Z,40.20
2019-03-27T04:55:11.844Z,38.30
2019-03-27T04:57:40.185Z,34.03
2019-03-27T05:00:09.571Z,35.08
2019-03-27T05:02:37.950Z,31.13
2019-03-27T05:05:07.491Z,39.30
2019-03-27T05:07:35.894Z,31.90
2019-03-27T05:10:05.538Z,41.90
2019-03-27T05:12:33.921Z,33.03
2019-03-27T05:15:02.340Z,38.90
2019-03-27T05:17:30.678Z,46.20
2019-03-27T05:19:58.995Z,38.20
2019-03-27T05:22:27.451Z,43.07
2019-03-27T05:24:55.791Z,37.73
2019-03-27T05:27:24.109Z,41.53
2019-03-27T05:29:53.787Z,38.90
2019-03-27T05:32:22.470Z,40.03
2019-03-27T05:34:50.777Z,40.43
2019-03-27T05:37:19.152Z,44.73
2019-03-27T05:39:47.476Z,41.43
2019-03-27T05:42:15.886Z,43.97
2019-03-27T05:44:44.587Z,39.73
2019-03-27T05:47:12.903Z,39.67
2019-03-27T05:49:41.228Z,49.57
2019-03-27T05:52:09.538Z,44.42
2019-03-27T05:54:37.942Z,48.63
2019-03-27T05:57:06.324Z,40.43
2019-03-27T05:59:34.660Z,42.00
2019-03-27T06:02:02.965Z,45.12
2019-03-27T06:04:31.744Z,41.57
2019-03-27T06:07:00.054Z,48.83
2019-03-27T06:09:28.362Z,42.10
2019-03-27T06:11:56.821Z,45.23
2019-03-27T06:14:25.150Z,46.83
2019-03-27T06:16:53.477Z,40.47
2019-03-27T06:19:21.793Z,38.93
2019-03-27T06:21:50.114Z,49.40
2019-03-27T06:24:18.427Z,42.67
2019-03-27T06:26:46.766Z,44.73
2019-03-27T06:29:15.927Z,45.67
2019-03-27T06:31:44.755Z,36.63
2019-03-27T06:34:13.085Z,43.38
2019-03-27T06:36:41.388Z,41.97
2019-03-27T06:39:09.911Z,37.95
2019-03-27T06:41:38.298Z,34.90
2019-03-27T06:44:06.806Z,42.85
2019-03-27T06:46:35.108Z,48.90
2019-03-27T06:49:03.424Z,39.53
2019-03-27T06:51:39.880Z,32.17
2019-03-27T06:54:01.768Z,37.17
2019-03-27T06:56:30.107Z,44.47
2019-03-27T06:58:58.405Z,37.17
2019-03-27T07:01:26.793Z,44.13
2019-03-27T07:03:55.106Z,37.17
2019-03-27T07:06:23.415Z,34.13
2019-03-27T07:08:51.736Z,40.73
2019-03-27T07:11:20.039Z,38.33
2019-03-27T07:13:48.355Z,33.30
2019-03-27T07:16:16.664Z,38.42
2019-03-27T07:18:44.981Z,34.97
2019-03-27T07:21:13.283Z,37.30
2019-03-27T07:23:41.592Z,30.80
2019-03-27T07:26:09.923Z,34.17
2019-03-27T07:28:38.227Z,55.73
2019-03-27T07:31:06.560Z,31.67
2019-03-27T07:33:35.223Z,37.10
2019-03-27T07:36:03.553Z,31.12
2019-03-27T07:38:31.877Z,31.07
2019-03-27T07:41:00.178Z,36.73
2019-03-27T07:43:28.496Z,36.33
2019-03-27T07:45:56.877Z,35.97
2019-03-27T07:48:25.197Z,30.60
2019-03-27T07:50:53.503Z,36.67
2019-03-27T07:53:22.618Z,30.90
2019-03-27T07:55:51.183Z,33.38
2019-03-27T07:58:19.491Z,33.20
2019-03-27T08:00:47.820Z,34.77
2019-03-27T08:03:16.122Z,33.73
2019-03-27T08:05:44.517Z,39.50
2019-03-27T08:08:12.899Z,29.00
2019-03-27T08:10:41.291Z,26.70
2019-03-27T08:13:09.595Z,29.70
2019-03-27T08:15:40.685Z,29.37
2019-03-27T08:18:07.958Z,30.37
2019-03-27T08:20:36.351Z,22.07
2019-03-27T08:23:04.730Z,26.93
2019-03-27T08:25:33.055Z,34.00
2019-03-27T08:28:01.435Z,36.20
2019-03-27T08:30:30.158Z,25.43
2019-03-27T08:32:58.468Z,31.03
2019-03-27T08:35:26.780Z,28.27
2019-03-27T08:37:55.311Z,30.73
2019-03-27T08:40:23.615Z,33.07
2019-03-27T08:42:51.947Z,33.67
2019-03-27T08:45:20.328Z,32.10
2019-03-27T08:47:48.672Z,33.13
2019-03-27T08:50:17.206Z,30.97
2019-03-27T08:52:45.515Z,30.90
2019-03-27T08:55:14.099Z,25.43
2019-03-27T08:57:42.478Z,31.07
2019-03-27T09:00:13.342Z,31.07
2019-03-27T09:02:41.645Z,26.75
2019-03-27T09:05:11.297Z,26.67
2019-03-27T09:07:39.630Z,25.07
2019-03-27T09:10:09.784Z,28.80
2019-03-27T09:12:38.184Z,34.00
2019-03-27T09:15:08.807Z,23.00
2019-03-27T09:17:37.202Z,32.53
2019-03-27T09:20:07.118Z,35.43
2019-03-27T09:22:35.438Z,28.07
2019-03-27T09:25:05.708Z,27.87
2019-03-27T09:27:34.182Z,21.62
2019-03-27T09:30:02.555Z,36.50
2019-03-27T09:32:30.871Z,26.97
2019-03-27T09:34:59.270Z,24.07
2019-03-27T09:37:27.577Z,29.63
2019-03-27T09:39:55.902Z,27.53
2019-03-27T09:42:24.610Z,22.63
2019-03-27T09:44:52.922Z,26.90
2019-03-27T09:47:21.408Z,32.17
2019-03-27T09:49:50.191Z,23.00
2019-03-27T09:52:18.636Z,30.70
2019-03-27T09:54:47.014Z,24.67
2019-03-27T09:57:15.435Z,21.43
2019-03-27T09:59:43.828Z,19.93
2019-03-27T10:02:12.461Z,25.50
2019-03-27T10:04:40.832Z,30.37
2019-03-27T10:07:09.153Z,27.80
2019-03-27T10:09:37.463Z,30.40
2019-03-27T10:12:05.874Z,24.37
2019-03-27T10:14:34.212Z,20.40
2019-03-27T10:17:02.534Z,24.00
2019-03-27T10:19:30.845Z,24.72
2019-03-27T10:21:59.153Z,21.50
2019-03-27T10:24:28.004Z,31.03
2019-03-27T10:26:56.379Z,25.10
2019-03-27T10:29:24.709Z,28.83
2019-03-27T10:31:53.034Z,24.60
2019-03-27T10:34:21.358Z,19.10
2019-03-27T10:36:50.015Z,19.30
2019-03-27T10:39:18.699Z,18.17
2019-03-27T10:41:47.025Z,19.57
2019-03-27T10:44:17.522Z,25.37
2019-03-27T10:46:45.385Z,24.03
2019-03-27T10:49:13.710Z,25.93
2019-03-27T10:51:42.011Z,25.57
2019-03-27T10:54:10.389Z,21.03
2019-03-27T10:56:39.215Z,26.03
2019-03-27T10:59:07.903Z,21.75
2019-03-27T11:01:36.210Z,23.13
2019-03-27T11:04:04.603Z,21.13
2019-03-27T11:06:32.977Z,30.40
2019-03-27T11:09:01.306Z,23.17
2019-03-27T11:11:29.702Z,24.00
2019-03-27T11:13:58.025Z,24.20
2019-03-27T11:16:26.457Z,33.67
2019-03-27T11:18:54.786Z,29.55
2019-03-27T11:21:23.497Z,21.50
2019-03-27T11:23:51.760Z,19.23
2019-03-27T11:26:20.316Z,19.30
2019-03-27T11:28:48.636Z,19.63
2019-03-27T11:31:16.968Z,20.50
2019-03-27T11:33:45.275Z,30.20
2019-03-27T11:36:13.933Z,19.47
2019-03-27T11:38:42.327Z,38.38
2019-03-27T11:41:12.228Z,23.38
2019-03-27T11:43:53.863Z,25.63
2019-03-27T11:46:10.860Z,28.57
2019-03-27T11:48:39.191Z,26.97
2019-03-27T11:51:07.634Z,33.13
2019-03-27T11:53:35.963Z,32.07
2019-03-27T11:56:04.703Z,25.60
2019-03-27T11:58:33.096Z,33.83
2019-03-27T12:01:01.409Z,31.60
2019-03-27T12:03:29.707Z,48.07
2019-03-27T12:05:58.032Z,24.50
2019-03-27T12:08:26.337Z,31.87
2019-03-27T12:10:55.064Z,29.02
2019-03-27T12:13:23.364Z,30.67
2019-03-27T12:15:51.707Z,28.40
2019-03-27T12:18:20.069Z,32.13
2019-03-27T12:20:58.968Z,25.63
2019-03-27T12:23:18.910Z,40.13
2019-03-27T12:25:47.281Z,32.57
2019-03-27T12:28:15.608Z,26.50
2019-03-27T12:30:44.279Z,33.40
2019-03-27T12:33:12.598Z,36.30
2019-03-27T12:35:41.083Z,46.50
2019-03-27T12:38:09.406Z,31.20
2019-03-27T12:40:37.713Z,34.20
2019-03-27T12:43:06.097Z,28.57
2019-03-27T12:45:34.475Z,40.27
2019-03-27T12:48:02.803Z,29.83
2019-03-27T12:50:31.106Z,27.87
2019-03-27T12:52:59.411Z,29.72
2019-03-27T12:55:27.888Z,29.27
2019-03-27T12:57:56.193Z,30.23
2019-03-27T13:00:24.956Z,22.03
2019-03-27T13:02:53.322Z,22.50
2019-03-27T13:05:22.022Z,30.67
2019-03-27T13:07:50.534Z,29.10
2019-03-27T13:10:19.102Z,24.77
2019-03-27T13:12:47.475Z,27.87
2019-03-27T13:15:15.920Z,31.57
2019-03-27T13:17:44.248Z,33.10
2019-03-27T13:20:13.495Z,25.77
2019-03-27T13:22:41.825Z,24.90
2019-03-27T13:25:10.500Z,27.03
2019-03-27T13:27:40.078Z,28.30
2019-03-27T13:30:09.107Z,25.23
2019-03-27T13:32:37.718Z,22.20
2019-03-27T13:35:06.902Z,28.98
2019-03-27T13:37:35.219Z,29.93
2019-03-27T13:40:09.039Z,24.13
2019-03-27T13:42:37.415Z,34.80
2019-03-27T13:45:07.367Z,26.37
2019-03-27T13:47:36.491Z,19.63
2019-03-27T13:50:12.921Z,25.80
2019-03-27T13:52:40.952Z,20.40
2019-03-27T13:55:09.718Z,27.70
2019-03-27T13:57:38.021Z,26.67
2019-03-27T14:00:09.251Z,20.97
2019-03-27T14:02:38.040Z,25.90
2019-03-27T14:05:06.972Z,23.97
2019-03-27T14:07:35.363Z,21.93
2019-03-27T14:10:04.904Z,21.80
2019-03-27T14:12:33.349Z,22.57
2019-03-27T14:15:01.722Z,22.70
2019-03-27T14:17:30.039Z,20.83
2019-03-27T14:19:58.348Z,21.97
2019-03-27T14:22:26.670Z,23.00
2019-03-27T14:24:54.971Z,21.27
2019-03-27T14:27:23.604Z,29.77
2019-03-27T14:29:52.000Z,23.47
2019-03-27T14:32:20.312Z,27.60
2019-03-27T14:34:48.658Z,26.93
2019-03-27T14:37:17.340Z,21.93
2019-03-27T14:39:45.723Z,21.63
2019-03-27T14:42:14.120Z,39.10
2019-03-27T14:44:42.426Z,30.90
2019-03-27T14:47:11.064Z,26.97
2019-03-27T14:49:39.768Z,25.90
2019-03-27T14:52:08.760Z,23.97
2019-03-27T14:54:37.095Z,27.53
2019-03-27T14:57:05.496Z,24.95
2019-03-27T14:59:33.799Z,23.97
2019-03-27T15:02:02.271Z,27.57
2019-03-27T15:04:30.978Z,25.70
2019-03-27T15:06:59.283Z,24.97
2019-03-27T15:09:27.946Z,28.47
2019-03-27T15:11:56.245Z,25.33
2019-03-27T15:14:24.583Z,25.27
2019-03-27T15:16:52.884Z,29.37
2019-03-27T15:19:21.566Z,25.23
2019-03-27T15:21:49.937Z,25.77
2019-03-27T15:24:20.623Z,31.43
2019-03-27T15:26:48.300Z,26.00
2019-03-27T15:29:16.610Z,27.98
2019-03-27T15:31:45.076Z,26.90
2019-03-27T15:34:13.365Z,26.67
2019-03-27T15:36:42.038Z,20.93
2019-03-27T15:39:10.285Z,22.37
2019-03-27T15:41:38.596Z,27.80
2019-03-27T15:44:06.920Z,21.03
2019-03-27T15:46:35.225Z,22.97
2019-03-27T15:49:03.551Z,27.03
2019-03-27T15:51:31.861Z,29.77
2019-03-27T15:54:00.551Z,25.03
2019-03-27T15:56:29.242Z,27.93
2019-03-27T15:58:57.548Z,26.83
2019-03-27T16:01:25.885Z,24.37
2019-03-27T16:03:54.487Z,20.57
2019-03-27T16:06:22.814Z,27.10
2019-03-27T16:08:51.232Z,28.07
2019-03-27T16:11:19.548Z,24.90
2019-03-27T16:13:47.907Z,28.20
2019-03-27T16:16:16.431Z,25.30
2019-03-27T16:18:44.731Z,24.67
2019-03-27T16:21:13.058Z,23.27
2019-03-27T16:23:41.359Z,22.60
2019-03-27T16:26:09.729Z,25.20
2019-03-27T16:28:38.058Z,25.00
2019-03-27T16:31:06.434Z,30.30
2019-03-27T16:33:34.750Z,38.37
2019-03-27T16:36:03.446Z,26.80
2019-03-27T16:38:31.851Z,24.43
2019-03-27T16:41:00.525Z,23.47
2019-03-27T16:43:28.844Z,24.90
2019-03-27T16:45:57.163Z,36.23
2019-03-27T16:48:25.470Z,20.52
2019-03-27T16:50:54.738Z,30.43
2019-03-27T16:53:23.075Z,22.17
2019-03-27T16:55:51.729Z,25.90
2019-03-27T16:58:20.442Z,27.50
2019-03-27T17:00:48.827Z,27.47
2019-03-27T17:03:17.483Z,26.70
2019-03-27T17:05:53.753Z,27.85
2019-03-27T17:08:16.195Z,26.73
2019-03-27T17:10:44.491Z,23.93
2019-03-27T17:13:12.835Z,22.33
2019-03-27T17:15:41.137Z,26.70
2019-03-27T17:18:09.504Z,37.87
2019-03-27T17:20:37.904Z,30.00
2019-03-27T17:23:17.476Z,29.35
2019-03-27T17:25:36.658Z,28.97
2019-03-27T17:28:05.126Z,27.80
2019-03-27T17:30:33.454Z,28.87
2019-03-27T17:33:02.063Z,26.73
2019-03-27T17:35:30.428Z,25.10
2019-03-27T17:37:59.131Z,24.67
2019-03-27T17:40:27.507Z,30.48
2019-03-27T17:42:56.205Z,32.83
2019-03-27T17:45:24.603Z,30.27
2019-03-27T17:47:52.935Z,33.00
2019-03-27T17:50:21.325Z,26.23
2019-03-27T17:52:49.708Z,25.47
2019-03-27T17:55:18.318Z,26.90
2019-03-27T17:57:46.648Z,22.20
2019-03-27T18:00:17.623Z,24.93
2019-03-27T18:02:46.009Z,25.32
2019-03-27T18:05:14.722Z,26.80
2019-03-27T18:07:43.126Z,28.13
2019-03-27T18:10:11.673Z,30.77
2019-03-27T18:12:40.050Z,31.77
2019-03-27T18:15:09.169Z,31.37
2019-03-27T18:17:37.548Z,34.80
2019-03-27T18:20:06.273Z,28.33
2019-03-27T18:22:35.571Z,43.13
2019-03-27T18:25:05.433Z,32.40
2019-03-27T18:27:34.144Z,38.70
2019-03-27T18:30:02.839Z,34.73
2019-03-27T18:32:31.301Z,26.77
2019-03-27T18:34:59.607Z,33.90
2019-03-27T18:37:27.930Z,30.50
2019-03-27T18:39:56.416Z,28.93
2019-03-27T18:42:24.742Z,27.35
2019-03-27T18:44:53.049Z,36.57
2019-03-27T18:47:21.348Z,29.90
2019-03-27T18:49:49.675Z,28.63
2019-03-27T18:52:17.991Z,28.37
2019-03-27T18:54:46.318Z,24.90
2019-03-27T18:57:15.052Z,30.10
2019-03-27T18:59:43.420Z,29.63
2019-03-27T19:02:11.726Z,34.90
2019-03-27T19:04:40.053Z,33.33
2019-03-27T19:07:08.356Z,30.50
2019-03-27T19:09:36.682Z,27.17
2019-03-27T19:12:05.149Z,33.33
2019-03-27T19:14:33.521Z,27.82
2019-03-27T19:17:02.181Z,35.17
2019-03-27T19:19:30.764Z,27.80
2019-03-27T19:21:59.106Z,38.63
2019-03-27T19:24:27.421Z,33.17
2019-03-27T19:26:55.733Z,31.37
2019-03-27T19:29:24.063Z,28.03
2019-03-27T19:31:52.428Z,32.10
2019-03-27T19:34:20.761Z,31.20
2019-03-27T19:36:49.134Z,29.07
2019-03-27T19:39:17.508Z,30.47
2019-03-27T19:41:45.971Z,29.12
2019-03-27T19:44:14.347Z,25.37
2019-03-27T19:46:42.740Z,30.67
2019-03-27T19:49:11.265Z,30.77
2019-03-27T19:51:39.657Z,29.35
2019-03-27T19:54:08.412Z,31.60
2019-03-27T19:56:36.915Z,29.50
2019-03-27T19:59:05.310Z,29.50
2019-03-27T20:01:33.695Z,22.77
2019-03-27T20:04:02.021Z,31.57
2019-03-27T20:06:30.410Z,21.43
2019-03-27T20:08:58.732Z,30.10
2019-03-27T20:11:27.066Z,41.53
2019-03-27T20:13:55.725Z,31.50
2019-03-27T20:16:24.039Z,38.10
2019-03-27T20:18:52.364Z,34.53
2019-03-27T20:21:20.666Z,30.40
2019-03-27T20:23:49.145Z,34.20
2019-03-27T20:26:17.450Z,22.00
2019-03-27T20:28:45.778Z,30.60
2019-03-27T20:31:14.453Z,32.80
2019-03-27T20:33:42.762Z,31.67
2019-03-27T20:36:13.156Z,41.70
2019-03-27T20:38:41.188Z,32.60
2019-03-27T20:41:09.646Z,36.67
2019-03-27T20:43:38.020Z,29.90
2019-03-27T20:46:06.793Z,44.70
2019-03-27T20:48:36.198Z,36.40
2019-03-27T20:51:04.615Z,29.27
2019-03-27T20:53:32.924Z,26.60
2019-03-27T20:56:01.248Z,53.40
2019-03-27T20:58:29.556Z,40.63
2019-03-27T21:00:57.938Z,29.23
2019-03-27T21:03:26.269Z,29.07
2019-03-27T21:05:54.581Z,30.33
2019-03-27T21:08:22.978Z,35.47
2019-03-27T21:10:51.358Z,30.00
2019-03-27T21:13:19.688Z,29.63
2019-03-27T21:15:48.290Z,34.03
2019-03-27T21:18:16.617Z,38.67
2019-03-27T21:20:44.912Z,29.30
2019-03-27T21:23:13.258Z,23.03
2019-03-27T21:25:41.628Z,30.07
2019-03-27T21:28:09.933Z,37.80
2019-03-27T21:30:38.253Z,32.13
2019-03-27T21:33:06.590Z,24.33
2019-03-27T21:35:34.903Z,31.10
2019-03-27T21:38:03.207Z,32.77
2019-03-27T21:40:31.536Z,30.97
2019-03-27T21:42:59.911Z,33.47
2019-03-27T21:45:28.236Z,31.97
2019-03-27T21:47:56.544Z,31.87
2019-03-27T21:50:24.844Z,27.97
2019-03-27T21:53:00.342Z,31.70
2019-03-27T21:55:23.402Z,26.20
2019-03-27T21:57:51.912Z,29.90
2019-03-27T22:00:37.668Z,29.50
2019-03-27T22:03:07.411Z,24.67
2019-03-27T22:05:35.965Z,34.10
2019-03-27T22:08:04.566Z,28.80
2019-03-27T22:10:32.941Z,29.80
2019-03-27T22:13:01.249Z,36.23
2019-03-27T22:15:29.933Z,27.43
2019-03-27T22:17:58.240Z,26.57
2019-03-27T22:20:26.561Z,34.13
2019-03-27T22:22:54.873Z,26.73
2019-03-27T22:25:35.202Z,35.23
2019-03-27T22:27:53.367Z,33.80
2019-03-27T22:30:21.758Z,29.90
2019-03-27T22:32:50.346Z,24.83
2019-03-27T22:35:18.648Z,22.27
2019-03-27T22:37:47.990Z,32.85
2019-03-27T22:40:16.566Z,33.10
2019-03-27T22:42:44.922Z,33.98
2019-03-27T22:45:13.373Z,30.80
2019-03-27T22:47:41.695Z,26.90
2019-03-27T22:50:10.142Z,28.23
2019-03-27T22:52:38.465Z,30.97
2019-03-27T22:55:07.816Z,28.03
2019-03-27T22:57:36.415Z,28.03
2019-03-27T23:00:09.467Z,29.47
2019-03-27T23:02:37.837Z,25.80
2019-03-27T23:05:07.192Z,27.43
2019-03-27T23:07:35.581Z,24.13
2019-03-27T23:10:05.656Z,27.97
2019-03-27T23:12:33.961Z,29.13
2019-03-27T23:15:02.292Z,28.77
2019-03-27T23:17:30.593Z,28.57
2019-03-27T23:19:58.920Z,41.47
2019-03-27T23:22:27.229Z,30.87
2019-03-27T23:24:55.533Z,32.63
2019-03-27T23:27:23.928Z,26.47
2019-03-27T23:29:52.237Z,33.47
2019-03-27T23:32:20.558Z,29.17
2019-03-27T23:34:49.032Z,35.60
2019-03-27T23:37:17.353Z,29.13
2019-03-27T23:39:45.666Z,31.33
2019-03-27T23:42:16.290Z,29.20
2019-03-27T23:44:44.089Z,37.93
2019-03-27T23:47:12.425Z,26.13
2019-03-27T23:49:40.823Z,37.77
2019-03-27T23:52:09.128Z,37.37
2019-03-27T23:54:37.458Z,36.47
2019-03-27T23:57:07.302Z,36.40
2019-03-27T23:59:35.698Z,28.97
